createdAt,value
2022-10-09T00:00:22.437Z,47.37
2022-10-09T00:01:22.453Z,43.83
2022-10-09T00:02:22.450Z,43.51
2022-10-09T00:03:22.425Z,53.33
2022-10-09T00:04:22.420Z,42.86
2022-10-09T00:05:22.465Z,43.34
2022-10-09T00:06:22.375Z,42.54
2022-10-09T00:07:22.383Z,43.99
2022-10-09T00:08:22.359Z,53.50
2022-10-09T00:09:22.353Z,42.86
2022-10-09T00:10:22.362Z,42.70
2022-10-09T00:11:22.366Z,43.18
2022-10-09T00:12:22.312Z,42.86
2022-10-09T00:13:22.302Z,57.04
2022-10-09T00:14:22.298Z,58.01
2022-10-09T00:15:22.367Z,57.85
2022-10-09T00:16:22.302Z,58.17
2022-10-09T00:17:22.285Z,58.65
2022-10-09T00:18:22.276Z,58.17
2022-10-09T00:19:22.275Z,53.01
2022-10-09T00:20:22.255Z,50.11
2022-10-09T00:21:22.247Z,59.78
2022-10-09T00:22:22.221Z,62.52
2022-10-09T00:23:22.212Z,53.33
2022-10-09T00:24:22.231Z,63.33
2022-10-09T00:25:22.185Z,60.26
2022-10-09T00:26:22.189Z,52.21
2022-10-09T00:27:22.176Z,62.04
2022-10-09T00:28:22.231Z,59.94
2022-10-09T00:29:22.173Z,52.85
2022-10-09T00:30:22.152Z,60.10
2022-10-09T00:31:22.274Z,59.14
2022-10-09T00:32:22.160Z,49.15
2022-10-09T00:33:22.115Z,61.39
2022-10-09T00:34:22.120Z,54.30
2022-10-09T00:35:22.092Z,42.70
2022-10-09T00:36:22.082Z,44.31
2022-10-09T00:37:22.075Z,43.67
2022-10-09T00:38:22.059Z,41.89
2022-10-09T00:39:22.064Z,45.76
2022-10-09T00:40:22.066Z,56.24
2022-10-09T00:41:22.034Z,57.04
2022-10-09T00:42:22.017Z,57.52
2022-10-09T00:43:22.011Z,56.72
2022-10-09T00:44:22.025Z,58.01
2022-10-09T00:45:21.987Z,58.17
2022-10-09T00:46:22.011Z,55.91
2022-10-09T00:47:21.970Z,55.91
2022-10-09T00:48:21.966Z,57.36
2022-10-09T00:49:21.967Z,50.76
2022-10-09T00:50:21.973Z,61.71
2022-10-09T00:51:21.934Z,50.43
2022-10-09T00:52:21.935Z,59.94
2022-10-09T00:53:21.922Z,52.37
2022-10-09T00:54:21.930Z,51.88
2022-10-09T00:55:21.917Z,59.94
2022-10-09T00:56:21.893Z,53.17
2022-10-09T00:57:21.873Z,59.46
2022-10-09T00:58:21.864Z,51.72
2022-10-09T00:59:21.850Z,62.52
2022-10-09T01:00:21.859Z,47.53
2022-10-09T01:01:21.900Z,58.01
2022-10-09T01:02:21.905Z,55.59
2022-10-09T01:03:21.822Z,44.31
2022-10-09T01:04:21.812Z,43.67
2022-10-09T01:05:21.812Z,46.08
2022-10-09T01:06:21.786Z,48.82
2022-10-09T01:07:21.794Z,45.76
2022-10-09T01:08:21.762Z,42.70
2022-10-09T01:09:21.760Z,41.57
2022-10-09T01:10:21.743Z,43.02
2022-10-09T01:11:21.738Z,41.57
2022-10-09T01:12:21.740Z,41.09
2022-10-09T01:13:21.715Z,41.41
2022-10-09T01:14:21.724Z,41.09
2022-10-09T01:15:21.703Z,41.73
2022-10-09T01:16:24.062Z,41.57
2022-10-09T01:17:22.702Z,46.08
2022-10-09T01:18:21.665Z,41.41
2022-10-09T01:19:21.648Z,42.70
2022-10-09T01:20:21.635Z,43.67
2022-10-09T01:21:21.626Z,42.38
2022-10-09T01:22:21.646Z,46.41
2022-10-09T01:23:21.736Z,40.93
2022-10-09T01:24:21.611Z,41.41
2022-10-09T01:25:21.588Z,41.25
2022-10-09T01:26:21.596Z,41.73
2022-10-09T01:27:21.574Z,43.67
2022-10-09T01:28:21.600Z,41.57
2022-10-09T01:29:21.553Z,41.73
2022-10-09T01:30:21.556Z,42.54
2022-10-09T01:31:21.589Z,43.99
2022-10-09T01:32:21.521Z,42.54
2022-10-09T01:33:21.512Z,42.70
2022-10-09T01:34:21.505Z,42.38
2022-10-09T01:35:21.489Z,42.38
2022-10-09T01:36:22.502Z,42.86
2022-10-09T01:37:21.479Z,41.57
2022-10-09T01:38:21.476Z,46.41
2022-10-09T01:39:21.477Z,48.66
2022-10-09T01:40:21.470Z,43.02
2022-10-09T01:41:21.434Z,44.15
2022-10-09T01:42:21.429Z,41.57
2022-10-09T01:43:21.419Z,41.41
2022-10-09T01:44:21.412Z,43.18
2022-10-09T01:45:21.443Z,41.09
2022-10-09T01:46:21.454Z,41.25
2022-10-09T01:47:21.376Z,40.93
2022-10-09T01:48:21.364Z,42.38
2022-10-09T01:49:21.394Z,43.51
2022-10-09T01:50:21.350Z,41.89
2022-10-09T01:51:21.352Z,41.41
2022-10-09T01:52:21.323Z,42.70
2022-10-09T01:53:21.324Z,43.34
2022-10-09T01:54:21.307Z,41.09
2022-10-09T01:55:21.308Z,41.09
2022-10-09T01:56:21.291Z,40.77
2022-10-09T01:57:21.285Z,41.89
2022-10-09T01:58:21.269Z,41.89
2022-10-09T01:59:21.275Z,41.25
2022-10-09T02:00:21.264Z,41.09
2022-10-09T02:01:21.279Z,41.25
2022-10-09T02:02:21.397Z,41.25
2022-10-09T02:03:21.233Z,41.25
2022-10-09T02:04:21.229Z,41.89
2022-10-09T02:05:21.219Z,41.41
2022-10-09T02:06:21.209Z,41.89
2022-10-09T02:07:21.180Z,41.25
2022-10-09T02:08:21.175Z,41.09
2022-10-09T02:09:21.197Z,41.89
2022-10-09T02:10:21.211Z,41.89
2022-10-09T02:11:21.141Z,42.06
2022-10-09T02:12:21.142Z,42.86
2022-10-09T02:13:21.138Z,43.51
2022-10-09T02:14:21.129Z,44.31
2022-10-09T02:15:21.160Z,41.73
2022-10-09T02:16:21.137Z,42.70
2022-10-09T02:17:21.095Z,42.86
2022-10-09T02:18:21.073Z,42.70
2022-10-09T02:19:21.077Z,43.34
2022-10-09T02:20:21.102Z,41.41
2022-10-09T02:21:21.068Z,42.22
2022-10-09T02:22:21.035Z,43.99
2022-10-09T02:23:21.023Z,42.70
2022-10-09T02:24:21.021Z,41.25
2022-10-09T02:25:21.002Z,41.41
2022-10-09T02:26:21.020Z,41.41
2022-10-09T02:27:20.984Z,41.41
2022-10-09T02:28:21.006Z,41.09
2022-10-09T02:29:20.963Z,40.77
2022-10-09T02:30:52.913Z,40.93
2022-10-09T02:31:21.023Z,41.09
2022-10-09T02:32:20.971Z,41.09
2022-10-09T02:33:20.934Z,41.25
2022-10-09T02:34:20.916Z,41.41
2022-10-09T02:35:20.916Z,41.41
2022-10-09T02:36:20.891Z,41.41
2022-10-09T02:37:21.915Z,41.57
2022-10-09T02:38:20.870Z,41.41
2022-10-09T02:39:20.871Z,42.86
2022-10-09T02:40:20.888Z,41.57
2022-10-09T02:41:20.846Z,41.89
2022-10-09T02:42:20.857Z,43.02
2022-10-09T02:43:20.828Z,43.34
2022-10-09T02:44:20.880Z,44.15
2022-10-09T02:45:20.817Z,43.67
2022-10-09T02:46:20.873Z,47.21
2022-10-09T02:47:20.787Z,44.63
2022-10-09T02:48:20.782Z,43.51
2022-10-09T02:49:20.782Z,44.31
2022-10-09T02:50:20.778Z,43.18
2022-10-09T02:51:20.780Z,44.63
2022-10-09T02:52:20.744Z,45.12
2022-10-09T02:53:20.727Z,41.57
2022-10-09T02:54:20.726Z,41.41
2022-10-09T02:55:20.726Z,42.70
2022-10-09T02:56:20.755Z,43.02
2022-10-09T02:57:20.692Z,41.89
2022-10-09T02:58:20.693Z,42.06
2022-10-09T02:59:20.676Z,41.89
2022-10-09T03:00:20.680Z,41.89
2022-10-09T03:01:20.720Z,43.51
2022-10-09T03:02:20.773Z,40.77
2022-10-09T03:03:20.656Z,40.77
2022-10-09T03:04:20.623Z,41.57
2022-10-09T03:05:20.611Z,41.57
2022-10-09T03:06:20.617Z,41.89
2022-10-09T03:07:20.606Z,41.73
2022-10-09T03:08:20.585Z,41.25
2022-10-09T03:09:20.577Z,41.25
2022-10-09T03:10:20.565Z,41.89
2022-10-09T03:11:20.550Z,42.06
2022-10-09T03:12:20.561Z,41.41
2022-10-09T03:13:20.536Z,44.47
2022-10-09T03:14:20.528Z,41.73
2022-10-09T03:15:20.518Z,41.89
2022-10-09T03:16:20.610Z,43.51
2022-10-09T03:17:20.514Z,43.99
2022-10-09T03:18:20.502Z,45.92
2022-10-09T03:19:20.481Z,41.89
2022-10-09T03:20:20.465Z,42.86
2022-10-09T03:21:20.463Z,42.86
2022-10-09T03:22:20.455Z,43.99
2022-10-09T03:23:20.454Z,41.57
2022-10-09T03:24:20.429Z,41.89
2022-10-09T03:25:20.418Z,41.25
2022-10-09T03:26:20.419Z,45.44
2022-10-09T03:27:20.428Z,41.25
2022-10-09T03:28:20.423Z,41.89
2022-10-09T03:29:21.396Z,45.44
2022-10-09T03:30:20.394Z,41.73
2022-10-09T03:31:39.763Z,41.73
2022-10-09T03:32:22.403Z,44.63
2022-10-09T03:33:20.339Z,41.57
2022-10-09T03:34:20.329Z,41.25
2022-10-09T03:35:20.361Z,41.57
2022-10-09T03:36:20.303Z,43.18
2022-10-09T03:37:20.315Z,42.38
2022-10-09T03:38:20.294Z,42.06
2022-10-09T03:39:20.291Z,41.89
2022-10-09T03:40:20.284Z,41.89
2022-10-09T03:41:20.263Z,41.57
2022-10-09T03:42:20.257Z,45.12
2022-10-09T03:43:20.237Z,42.54
2022-10-09T03:44:20.231Z,42.22
2022-10-09T03:45:20.243Z,46.08
2022-10-09T03:46:20.236Z,42.70
2022-10-09T03:47:20.239Z,41.89
2022-10-09T03:48:20.187Z,41.73
2022-10-09T03:49:20.183Z,43.18
2022-10-09T03:50:20.173Z,43.83
2022-10-09T03:51:20.185Z,42.86
2022-10-09T03:52:20.161Z,43.83
2022-10-09T03:53:20.174Z,44.47
2022-10-09T03:54:20.133Z,41.73
2022-10-09T03:55:20.137Z,42.22
2022-10-09T03:56:20.117Z,44.31
2022-10-09T03:57:20.112Z,42.86
2022-10-09T03:58:20.110Z,43.67
2022-10-09T03:59:20.084Z,42.06
2022-10-09T04:00:20.098Z,42.54
2022-10-09T04:01:20.164Z,43.67
2022-10-09T04:02:20.150Z,43.02
2022-10-09T04:03:20.049Z,41.41
2022-10-09T04:04:20.048Z,41.73
2022-10-09T04:05:20.026Z,41.73
2022-10-09T04:06:20.020Z,43.02
2022-10-09T04:07:20.019Z,42.06
2022-10-09T04:08:19.992Z,43.99
2022-10-09T04:09:19.977Z,42.70
2022-10-09T04:10:19.980Z,41.57
2022-10-09T04:11:19.967Z,41.25
2022-10-09T04:12:19.979Z,41.89
2022-10-09T04:13:19.945Z,42.06
2022-10-09T04:14:19.934Z,41.57
2022-10-09T04:15:19.923Z,42.54
2022-10-09T04:16:20.025Z,41.25
2022-10-09T04:17:19.925Z,41.25
2022-10-09T04:18:19.909Z,41.89
2022-10-09T04:19:19.893Z,41.73
2022-10-09T04:20:19.865Z,42.22
2022-10-09T04:21:19.861Z,41.89
2022-10-09T04:22:19.852Z,45.76
2022-10-09T04:23:19.861Z,42.38
2022-10-09T04:24:19.852Z,41.89
2022-10-09T04:25:19.814Z,42.22
2022-10-09T04:26:20.812Z,41.73
2022-10-09T04:27:19.811Z,43.51
2022-10-09T04:28:19.826Z,46.25
2022-10-09T04:29:19.811Z,42.54
2022-10-09T04:30:19.785Z,44.31
2022-10-09T04:31:19.805Z,44.31
2022-10-09T04:32:20.760Z,46.73
2022-10-09T04:33:19.759Z,42.22
2022-10-09T04:34:19.750Z,42.86
2022-10-09T04:35:19.730Z,46.08
2022-10-09T04:36:19.719Z,44.96
2022-10-09T04:37:19.725Z,44.47
2022-10-09T04:38:19.697Z,45.92
2022-10-09T04:39:19.684Z,48.98
2022-10-09T04:40:19.681Z,42.54
2022-10-09T04:41:19.662Z,41.73
2022-10-09T04:42:19.679Z,41.89
2022-10-09T04:43:19.640Z,42.06
2022-10-09T04:44:19.633Z,41.73
2022-10-09T04:45:19.619Z,41.89
2022-10-09T04:46:19.603Z,42.06
2022-10-09T04:47:19.611Z,41.57
2022-10-09T04:48:19.601Z,42.86
2022-10-09T04:49:19.581Z,45.12
2022-10-09T04:50:19.571Z,45.28
2022-10-09T04:51:19.564Z,46.08
2022-10-09T04:52:19.566Z,48.02
2022-10-09T04:53:19.550Z,42.38
2022-10-09T04:54:19.532Z,42.22
2022-10-09T04:55:19.524Z,43.67
2022-10-09T04:56:19.533Z,43.18
2022-10-09T04:57:19.537Z,44.79
2022-10-09T04:58:19.493Z,43.99
2022-10-09T04:59:19.482Z,47.05
2022-10-09T05:00:19.474Z,45.44
2022-10-09T05:01:19.481Z,42.38
2022-10-09T05:02:19.508Z,41.73
2022-10-09T05:03:19.466Z,41.89
2022-10-09T05:04:19.434Z,42.06
2022-10-09T05:05:19.439Z,43.99
2022-10-09T05:06:19.406Z,43.34
2022-10-09T05:07:19.406Z,43.67
2022-10-09T05:08:19.425Z,43.18
2022-10-09T05:09:19.397Z,43.34
2022-10-09T05:10:20.379Z,42.22
2022-10-09T05:11:19.369Z,43.34
2022-10-09T05:12:19.380Z,43.18
2022-10-09T05:13:19.358Z,44.15
2022-10-09T05:14:19.338Z,44.31
2022-10-09T05:15:19.324Z,44.31
2022-10-09T05:16:19.366Z,42.06
2022-10-09T05:17:22.939Z,43.51
2022-10-09T05:18:20.302Z,42.38
2022-10-09T05:19:19.289Z,41.89
2022-10-09T05:20:19.280Z,41.73
2022-10-09T05:21:19.290Z,46.73
2022-10-09T05:22:19.261Z,42.38
2022-10-09T05:23:19.267Z,42.54
2022-10-09T05:24:19.229Z,43.34
2022-10-09T05:25:19.221Z,44.79
2022-10-09T05:26:19.220Z,45.92
2022-10-09T05:27:19.199Z,46.41
2022-10-09T05:28:19.248Z,42.86
2022-10-09T05:29:19.202Z,43.18
2022-10-09T05:30:19.170Z,44.96
2022-10-09T05:31:19.220Z,41.89
2022-10-09T05:32:19.155Z,41.89
2022-10-09T05:33:19.147Z,41.89
2022-10-09T05:34:19.153Z,42.54
2022-10-09T05:35:19.127Z,44.15
2022-10-09T05:36:19.122Z,45.12
2022-10-09T05:37:19.104Z,44.15
2022-10-09T05:38:19.091Z,46.57
2022-10-09T05:39:19.104Z,43.18
2022-10-09T05:40:19.084Z,43.34
2022-10-09T05:41:19.069Z,43.34
2022-10-09T05:42:19.055Z,43.18
2022-10-09T05:43:19.054Z,41.89
2022-10-09T05:44:19.044Z,47.05
2022-10-09T05:45:19.048Z,42.06
2022-10-09T05:46:19.073Z,42.54
2022-10-09T05:47:19.007Z,42.22
2022-10-09T05:48:18.994Z,42.70
2022-10-09T05:49:18.989Z,42.38
2022-10-09T05:50:19.009Z,44.96
2022-10-09T05:51:18.962Z,44.31
2022-10-09T05:52:18.964Z,47.05
2022-10-09T05:53:18.951Z,45.12
2022-10-09T05:54:18.943Z,47.70
2022-10-09T05:55:18.948Z,44.31
2022-10-09T05:56:19.921Z,44.96
2022-10-09T05:57:18.914Z,46.89
2022-10-09T05:58:18.911Z,43.51
2022-10-09T05:59:18.894Z,43.02
2022-10-09T06:00:18.883Z,49.47
2022-10-09T06:01:18.917Z,43.18
2022-10-09T06:02:18.944Z,42.70
2022-10-09T06:03:18.855Z,48.02
2022-10-09T06:04:18.840Z,44.31
2022-10-09T06:05:18.851Z,45.12
2022-10-09T06:06:18.827Z,42.38
2022-10-09T06:07:18.844Z,45.12
2022-10-09T06:08:18.835Z,42.86
2022-10-09T06:09:18.831Z,44.96
2022-10-09T06:10:18.786Z,46.57
2022-10-09T06:11:18.763Z,45.28
2022-10-09T06:12:18.769Z,45.76
2022-10-09T06:13:18.765Z,43.02
2022-10-09T06:14:18.770Z,46.41
2022-10-09T06:15:18.732Z,43.34
2022-10-09T06:16:18.757Z,47.05
2022-10-09T06:17:18.712Z,47.70
2022-10-09T06:18:18.703Z,43.51
2022-10-09T06:19:18.694Z,44.79
2022-10-09T06:20:18.722Z,45.92
2022-10-09T06:21:18.674Z,50.27
2022-10-09T06:22:18.670Z,45.12
2022-10-09T06:23:18.659Z,49.31
2022-10-09T06:24:18.668Z,47.21
2022-10-09T06:25:18.668Z,48.66
2022-10-09T06:26:18.625Z,48.66
2022-10-09T06:27:18.623Z,43.51
2022-10-09T06:28:18.656Z,45.76
2022-10-09T06:29:18.601Z,42.54
2022-10-09T06:30:18.591Z,43.18
2022-10-09T06:31:18.650Z,48.34
2022-10-09T06:32:18.559Z,48.50
2022-10-09T06:33:18.566Z,48.98
2022-10-09T06:34:18.569Z,44.47
2022-10-09T06:35:18.544Z,44.63
2022-10-09T06:36:18.540Z,45.12
2022-10-09T06:37:18.531Z,44.31
2022-10-09T06:38:18.516Z,43.99
2022-10-09T06:39:18.496Z,46.08
2022-10-09T06:40:18.498Z,45.28
2022-10-09T06:41:18.488Z,49.15
2022-10-09T06:42:18.497Z,47.05
2022-10-09T06:43:18.460Z,50.60
2022-10-09T06:44:18.438Z,46.08
2022-10-09T06:45:19.439Z,47.05
2022-10-09T06:46:18.492Z,51.72
2022-10-09T06:47:18.460Z,50.60
2022-10-09T06:48:18.412Z,45.28
2022-10-09T06:49:18.403Z,47.21
2022-10-09T06:50:18.400Z,48.02
2022-10-09T06:51:18.385Z,50.27
2022-10-09T06:52:18.397Z,52.05
2022-10-09T06:53:18.365Z,49.95
2022-10-09T06:54:18.345Z,46.25
2022-10-09T06:55:18.338Z,45.28
2022-10-09T06:56:18.328Z,49.15
2022-10-09T06:57:19.352Z,51.88
2022-10-09T06:58:18.318Z,47.05
2022-10-09T06:59:18.311Z,49.31
2022-10-09T07:00:18.304Z,48.02
2022-10-09T07:01:18.336Z,49.15
2022-10-09T07:02:18.333Z,49.31
2022-10-09T07:03:18.289Z,49.79
2022-10-09T07:04:18.260Z,48.82
2022-10-09T07:05:18.245Z,47.37
2022-10-09T07:06:18.237Z,46.57
2022-10-09T07:07:18.227Z,48.66
2022-10-09T07:08:18.223Z,48.34
2022-10-09T07:09:18.202Z,48.50
2022-10-09T07:10:22.833Z,53.33
2022-10-09T07:11:19.187Z,52.37
2022-10-09T07:12:18.177Z,51.24
2022-10-09T07:13:18.166Z,49.15
2022-10-09T07:14:18.199Z,46.08
2022-10-09T07:15:18.159Z,46.08
2022-10-09T07:16:18.162Z,48.02
2022-10-09T07:17:18.121Z,49.31
2022-10-09T07:18:18.134Z,47.05
2022-10-09T07:19:18.126Z,48.02
2022-10-09T07:20:18.096Z,48.98
2022-10-09T07:21:18.089Z,48.34
2022-10-09T07:22:18.089Z,53.50
2022-10-09T07:23:18.096Z,49.47
2022-10-09T07:24:18.100Z,46.41
2022-10-09T07:25:18.070Z,53.33
2022-10-09T07:26:18.039Z,53.82
2022-10-09T07:27:18.035Z,49.31
2022-10-09T07:28:18.046Z,49.31
2022-10-09T07:29:18.019Z,52.05
2022-10-09T07:30:18.022Z,51.72
2022-10-09T07:31:18.039Z,50.92
2022-10-09T07:32:17.978Z,46.57
2022-10-09T07:33:17.977Z,54.14
2022-10-09T07:34:17.967Z,53.17
2022-10-09T07:35:17.948Z,50.76
2022-10-09T07:36:17.962Z,52.05
2022-10-09T07:37:17.934Z,54.95
2022-10-09T07:38:17.926Z,53.66
2022-10-09T07:39:17.908Z,50.60
2022-10-09T07:40:17.904Z,52.85
2022-10-09T07:41:17.914Z,51.40
2022-10-09T07:42:17.888Z,50.27
2022-10-09T07:43:17.869Z,50.43
2022-10-09T07:44:17.866Z,49.31
2022-10-09T07:45:17.856Z,50.27
2022-10-09T07:46:18.953Z,51.08
2022-10-09T07:47:17.831Z,48.34
2022-10-09T07:48:17.815Z,50.76
2022-10-09T07:49:17.817Z,53.82
2022-10-09T07:50:17.800Z,53.98
2022-10-09T07:51:17.778Z,51.72
2022-10-09T07:52:17.793Z,52.21
2022-10-09T07:53:17.770Z,51.88
2022-10-09T07:54:17.771Z,53.17
2022-10-09T07:55:17.729Z,49.79
2022-10-09T07:56:17.740Z,53.66
2022-10-09T07:57:17.740Z,51.08
2022-10-09T07:58:17.722Z,49.47
2022-10-09T07:59:17.719Z,48.50
2022-10-09T08:00:17.695Z,46.57
2022-10-09T08:01:20.342Z,51.08
2022-10-09T08:02:18.749Z,51.40
2022-10-09T08:03:17.669Z,46.73
2022-10-09T08:04:17.678Z,53.01
2022-10-09T08:05:17.647Z,51.08
2022-10-09T08:06:17.627Z,51.88
2022-10-09T08:07:17.619Z,51.40
2022-10-09T08:08:17.610Z,52.85
2022-10-09T08:09:17.610Z,51.88
2022-10-09T08:10:17.599Z,53.33
2022-10-09T08:11:17.593Z,51.88
2022-10-09T08:12:17.570Z,53.17
2022-10-09T08:13:17.565Z,50.76
2022-10-09T08:14:19.510Z,54.46
2022-10-09T08:15:18.557Z,51.88
2022-10-09T08:16:17.602Z,52.69
2022-10-09T08:17:18.547Z,51.72
2022-10-09T08:18:17.526Z,52.53
2022-10-09T08:19:17.506Z,52.37
2022-10-09T08:20:17.493Z,51.40
2022-10-09T08:21:17.510Z,51.88
2022-10-09T08:22:17.480Z,52.05
2022-10-09T08:23:17.479Z,53.33
2022-10-09T08:24:17.464Z,52.85
2022-10-09T08:25:17.435Z,52.85
2022-10-09T08:26:17.424Z,53.17
2022-10-09T08:27:17.440Z,52.37
2022-10-09T08:28:17.469Z,52.85
2022-10-09T08:29:17.412Z,51.24
2022-10-09T08:30:49.365Z,51.08
2022-10-09T08:31:17.454Z,48.50
2022-10-09T08:32:17.385Z,53.66
2022-10-09T08:33:17.369Z,48.98
2022-10-09T08:34:17.357Z,52.05
2022-10-09T08:35:17.374Z,50.92
2022-10-09T08:36:17.346Z,51.40
2022-10-09T08:37:17.356Z,52.37
2022-10-09T08:38:37.458Z,53.98
2022-10-09T08:39:19.350Z,54.95
2022-10-09T08:40:17.372Z,53.50
2022-10-09T08:41:17.277Z,51.88
2022-10-09T08:42:17.268Z,54.62
2022-10-09T08:43:17.297Z,52.37
2022-10-09T08:44:17.299Z,52.85
2022-10-09T08:45:17.249Z,52.85
2022-10-09T08:46:20.795Z,55.11
2022-10-09T08:47:17.263Z,52.37
2022-10-09T08:48:17.211Z,56.40
2022-10-09T08:49:17.203Z,54.46
2022-10-09T08:50:17.186Z,53.98
2022-10-09T08:51:17.175Z,54.46
2022-10-09T08:52:17.192Z,53.98
2022-10-09T08:53:17.171Z,52.53
2022-10-09T08:54:17.153Z,52.05
2022-10-09T08:55:17.140Z,50.92
2022-10-09T08:56:17.149Z,50.43
2022-10-09T08:57:17.132Z,50.27
2022-10-09T08:58:17.141Z,52.53
2022-10-09T08:59:17.152Z,53.01
2022-10-09T09:00:17.098Z,55.11
2022-10-09T09:01:17.131Z,51.72
2022-10-09T09:02:17.077Z,52.37
2022-10-09T09:03:17.133Z,53.98
2022-10-09T09:04:17.069Z,51.24
2022-10-09T09:05:17.052Z,52.37
2022-10-09T09:06:17.035Z,49.95
2022-10-09T09:07:17.044Z,52.69
2022-10-09T09:08:17.005Z,54.62
2022-10-09T09:09:17.021Z,52.69
2022-10-09T09:10:18.770Z,50.92
2022-10-09T09:11:21.249Z,53.17
2022-10-09T09:12:17.990Z,51.88
2022-10-09T09:13:16.983Z,49.47
2022-10-09T09:14:16.940Z,55.11
2022-10-09T09:15:16.950Z,53.82
2022-10-09T09:16:16.973Z,53.50
2022-10-09T09:17:16.924Z,53.50
2022-10-09T09:18:16.923Z,54.46
2022-10-09T09:19:16.913Z,52.53
2022-10-09T09:20:16.889Z,54.46
2022-10-09T09:21:16.882Z,54.46
2022-10-09T09:22:16.863Z,55.59
2022-10-09T09:23:16.875Z,53.33
2022-10-09T09:24:16.853Z,52.53
2022-10-09T09:25:16.882Z,54.30
2022-10-09T09:26:16.821Z,54.30
2022-10-09T09:27:16.810Z,50.11
2022-10-09T09:28:16.829Z,53.01
2022-10-09T09:29:16.792Z,53.66
2022-10-09T09:30:16.803Z,54.14
2022-10-09T09:31:16.906Z,53.98
2022-10-09T09:32:16.772Z,51.72
2022-10-09T09:33:16.762Z,50.60
2022-10-09T09:34:16.745Z,54.79
2022-10-09T09:35:16.751Z,50.76
2022-10-09T09:36:16.789Z,54.95
2022-10-09T09:37:16.736Z,55.91
2022-10-09T09:38:17.752Z,53.17
2022-10-09T09:41:18.719Z,53.82
2022-10-09T09:42:16.695Z,53.33
2022-10-09T09:43:16.659Z,53.17
2022-10-09T09:44:16.655Z,55.27
2022-10-09T09:45:16.635Z,56.24
2022-10-09T09:46:16.850Z,55.91
2022-10-09T09:47:16.634Z,55.11
2022-10-09T09:48:16.615Z,53.98
2022-10-09T09:49:16.605Z,54.79
2022-10-09T09:50:42.262Z,54.62
2022-10-09T09:51:28.115Z,54.79
2022-10-09T09:52:17.590Z,52.69
2022-10-09T09:53:16.595Z,56.07
2022-10-09T09:54:16.559Z,50.11
2022-10-09T09:55:16.547Z,53.50
2022-10-09T09:56:16.541Z,51.72
2022-10-09T09:57:21.712Z,55.27
2022-10-09T09:58:18.546Z,54.95
2022-10-09T09:59:16.520Z,53.66
2022-10-09T10:00:16.507Z,51.88
2022-10-09T10:01:16.591Z,55.27
2022-10-09T10:02:16.556Z,53.50
2022-10-09T10:03:16.488Z,55.27
2022-10-09T10:04:16.451Z,55.27
2022-10-09T10:05:16.446Z,56.56
2022-10-09T10:06:16.449Z,56.07
2022-10-09T10:07:16.424Z,55.43
2022-10-09T10:08:16.412Z,54.14
2022-10-09T10:09:16.406Z,57.20
2022-10-09T10:10:19.763Z,54.95
2022-10-09T10:11:16.378Z,54.95
2022-10-09T10:12:16.406Z,54.95
2022-10-09T10:13:16.360Z,54.46
2022-10-09T10:14:16.353Z,52.69
2022-10-09T10:15:16.348Z,54.95
2022-10-09T10:16:16.426Z,54.46
2022-10-09T10:17:16.637Z,55.91
2022-10-09T10:18:17.334Z,51.88
2022-10-09T10:19:16.316Z,55.11
2022-10-09T10:20:16.313Z,57.04
2022-10-09T10:21:16.310Z,55.75
2022-10-09T10:22:16.311Z,53.82
2022-10-09T10:23:16.293Z,54.95
2022-10-09T10:24:16.270Z,53.98
2022-10-09T10:25:16.358Z,51.08
2022-10-09T10:26:16.259Z,54.62
2022-10-09T10:27:16.215Z,54.95
2022-10-09T10:28:16.282Z,54.62
2022-10-09T10:29:16.239Z,53.17
2022-10-09T10:30:16.194Z,49.63
2022-10-09T10:31:16.231Z,53.33
2022-10-09T10:32:16.187Z,54.46
2022-10-09T10:33:16.184Z,53.01
2022-10-09T10:34:16.157Z,53.33
2022-10-09T10:35:16.138Z,53.50
2022-10-09T10:36:16.124Z,54.14
2022-10-09T10:37:16.119Z,53.98
2022-10-09T10:38:16.102Z,54.62
2022-10-09T10:39:16.180Z,53.82
2022-10-09T10:40:16.090Z,54.46
2022-10-09T10:41:16.078Z,55.91
2022-10-09T10:42:16.054Z,55.27
2022-10-09T10:43:16.059Z,54.30
2022-10-09T10:44:16.095Z,53.01
2022-10-09T10:45:16.031Z,53.01
2022-10-09T10:46:16.060Z,54.62
2022-10-09T10:47:16.007Z,52.53
2022-10-09T10:48:16.022Z,50.11
2022-10-09T10:49:16.021Z,54.30
2022-10-09T10:50:15.986Z,51.88
2022-10-09T10:51:15.975Z,53.17
2022-10-09T10:52:15.959Z,55.27
2022-10-09T10:53:15.947Z,52.21
2022-10-09T10:54:15.946Z,54.14
2022-10-09T10:55:15.964Z,52.37
2022-10-09T10:56:15.913Z,54.30
2022-10-09T10:57:15.932Z,54.46
2022-10-09T10:58:15.894Z,51.24
2022-10-09T10:59:15.895Z,50.92
2022-10-09T11:00:15.904Z,53.50
2022-10-09T11:01:15.959Z,52.21
2022-10-09T11:02:15.857Z,53.01
2022-10-09T11:03:15.877Z,51.88
2022-10-09T11:04:15.835Z,53.82
2022-10-09T11:05:15.832Z,53.98
2022-10-09T11:06:15.812Z,54.46
2022-10-09T11:07:15.826Z,52.85
2022-10-09T11:08:15.789Z,52.37
2022-10-09T11:09:15.786Z,53.01
2022-10-09T11:10:15.864Z,52.69
2022-10-09T11:11:15.791Z,52.85
2022-10-09T11:12:24.721Z,51.88
2022-10-09T11:13:17.747Z,53.17
2022-10-09T11:14:20.069Z,53.33
2022-10-09T11:15:16.723Z,52.69
2022-10-09T11:16:15.799Z,54.79
2022-10-09T11:17:15.709Z,53.17
2022-10-09T11:18:15.688Z,54.46
2022-10-09T11:19:15.695Z,51.40
2022-10-09T11:20:15.764Z,53.82
2022-10-09T11:21:15.666Z,52.85
2022-10-09T11:22:15.646Z,52.05
2022-10-09T11:23:15.638Z,52.85
2022-10-09T11:24:15.655Z,55.27
2022-10-09T11:25:15.621Z,53.98
2022-10-09T11:26:15.611Z,54.46
2022-10-09T11:27:15.620Z,54.95
2022-10-09T11:28:15.645Z,53.98
2022-10-09T11:29:15.632Z,54.46
2022-10-09T11:30:15.652Z,52.05
2022-10-09T11:31:15.614Z,54.62
2022-10-09T11:32:15.555Z,53.98
2022-10-09T11:33:15.542Z,53.66
2022-10-09T11:34:15.551Z,53.01
2022-10-09T11:35:15.530Z,52.69
2022-10-09T11:36:15.526Z,54.30
2022-10-09T11:37:15.531Z,53.98
2022-10-09T11:38:15.505Z,55.43
2022-10-09T11:39:15.496Z,53.33
2022-10-09T11:40:15.542Z,53.50
2022-10-09T11:41:15.475Z,54.30
2022-10-09T11:42:15.478Z,50.76
2022-10-09T11:43:15.449Z,52.69
2022-10-09T11:44:15.428Z,53.17
2022-10-09T11:45:15.427Z,53.01
2022-10-09T11:46:15.525Z,54.46
2022-10-09T11:47:15.405Z,52.37
2022-10-09T11:48:15.417Z,52.37
2022-10-09T11:49:15.371Z,53.66
2022-10-09T11:50:16.419Z,52.69
2022-10-09T11:51:15.368Z,49.47
2022-10-09T11:52:15.371Z,52.69
2022-10-09T11:53:15.348Z,50.76
2022-10-09T11:54:15.326Z,53.33
2022-10-09T11:55:16.345Z,53.50
2022-10-09T11:56:15.305Z,53.01
2022-10-09T11:57:15.735Z,52.85
2022-10-09T11:58:16.292Z,55.11
2022-10-09T11:59:15.344Z,54.95
2022-10-09T12:00:15.324Z,52.53
2022-10-09T12:01:15.339Z,54.14
2022-10-09T12:02:15.315Z,54.62
2022-10-09T12:03:15.300Z,52.37
2022-10-09T12:04:15.499Z,53.17
2022-10-09T12:05:15.249Z,55.27
2022-10-09T12:06:15.220Z,52.05
2022-10-09T12:07:15.200Z,53.33
2022-10-09T12:08:18.351Z,53.98
2022-10-09T12:09:15.191Z,55.75
2022-10-09T12:10:15.216Z,55.11
2022-10-09T12:11:15.187Z,53.01
2022-10-09T12:12:15.164Z,52.21
2022-10-09T12:13:15.160Z,54.14
2022-10-09T12:14:19.513Z,55.91
2022-10-09T12:15:16.124Z,50.76
2022-10-09T12:16:15.149Z,51.24
2022-10-09T12:17:15.105Z,52.69
2022-10-09T12:18:15.094Z,51.88
2022-10-09T12:19:15.081Z,51.72
2022-10-09T12:20:16.105Z,54.79
2022-10-09T12:21:15.062Z,54.62
2022-10-09T12:22:15.051Z,54.14
2022-10-09T12:23:26.205Z,53.01
2022-10-09T12:24:17.050Z,52.37
2022-10-09T12:25:15.091Z,53.01
2022-10-09T12:26:15.020Z,52.85
2022-10-09T12:27:15.023Z,49.79
2022-10-09T12:28:15.053Z,51.24
2022-10-09T12:29:14.996Z,52.69
2022-10-09T12:30:14.976Z,52.85
2022-10-09T12:31:15.041Z,52.53
2022-10-09T12:32:14.962Z,51.08
2022-10-09T12:33:14.960Z,52.21
2022-10-09T12:34:14.957Z,55.43
2022-10-09T12:35:14.941Z,56.24
2022-10-09T12:36:14.931Z,51.40
2022-10-09T12:37:14.916Z,48.66
2022-10-09T12:38:14.911Z,54.95
2022-10-09T12:39:14.921Z,52.85
2022-10-09T12:40:14.880Z,48.34
2022-10-09T12:41:20.073Z,51.56
2022-10-09T12:42:15.948Z,51.88
2022-10-09T12:43:15.162Z,50.27
2022-10-09T12:44:14.845Z,50.76
2022-10-09T12:45:14.878Z,50.43
2022-10-09T12:46:14.887Z,53.50
2022-10-09T12:47:14.815Z,54.79
2022-10-09T12:48:14.823Z,54.14
2022-10-09T12:49:14.792Z,52.53
2022-10-09T12:50:14.777Z,50.43
2022-10-09T12:51:14.785Z,49.31
2022-10-09T12:52:14.763Z,53.82
2022-10-09T12:53:14.759Z,52.85
2022-10-09T12:54:14.739Z,49.63